createdAt,value
2019-02-24T00:00:07.479Z,12.4
2019-02-24T00:00:57.134Z,12.5
2019-02-24T00:01:46.990Z,12.4
2019-02-24T00:02:37.503Z,12.4
2019-02-24T00:03:27.570Z,12.4
2019-02-24T00:04:17.867Z,12.4
2019-02-24T00:05:07.133Z,12.4
2019-02-24T00:05:57.463Z,12.4
2019-02-24T00:06:47.756Z,12.4
2019-02-24T00:07:38.347Z,12.4
2019-02-24T00:08:27.337Z,12.4
2019-02-24T00:09:18.503Z,12.4
2019-02-24T00:10:08.290Z,12.4
2019-02-24T00:10:58.372Z,12.4
2019-02-24T00:11:48.945Z,12.4
2019-02-24T00:12:38.957Z,12.3
2019-02-24T00:13:29.036Z,12.4
2019-02-24T00:14:17.999Z,12.4
2019-02-24T00:15:08.617Z,12.3
2019-02-24T00:15:58.644Z,12.3
2019-02-24T00:16:48.984Z,12.3
2019-02-24T00:17:38.467Z,12.3
2019-02-24T00:18:28.514Z,12.3
2019-02-24T00:19:18.327Z,12.3
2019-02-24T00:20:08.927Z,12.3
2019-02-24T00:20:59.574Z,12.3
2019-02-24T00:21:49.064Z,12.3
2019-02-24T00:22:39.361Z,12.3
2019-02-24T00:23:29.439Z,12.3
2019-02-24T00:24:18.646Z,12.3
2019-02-24T00:25:09.067Z,12.3
2019-02-24T00:25:58.836Z,12.3
2019-02-24T00:26:49.379Z,12.3
2019-02-24T00:27:39.279Z,12.3
2019-02-24T00:28:29.009Z,12.3
2019-02-24T00:29:19.381Z,12.3
2019-02-24T00:30:09.709Z,12.3
2019-02-24T00:30:58.629Z,12.2
2019-02-24T00:31:49.603Z,12.2
2019-02-24T00:32:41.149Z,12.2
2019-02-24T00:33:29.696Z,12.2
2019-02-24T00:34:19.671Z,12.2
2019-02-24T00:35:09.501Z,12.2
2019-02-24T00:35:59.837Z,12.2
2019-02-24T00:36:49.020Z,12.2
2019-02-24T00:37:40.164Z,12.2
2019-02-24T00:38:30.173Z,12.1
2019-02-24T00:39:20.036Z,12.1
2019-02-24T00:40:10.596Z,12.1
2019-02-24T00:41:00.341Z,12.1
2019-02-24T00:41:50.441Z,12.1
2019-02-24T00:42:40.798Z,12.1
2019-02-24T00:43:30.253Z,12.1
2019-02-24T00:44:20.628Z,12.1
2019-02-24T00:45:10.127Z,12.1
2019-02-24T00:46:00.682Z,12.1
2019-02-24T00:46:50.315Z,12.1
2019-02-24T00:47:41.128Z,12.1
2019-02-24T00:48:31.460Z,12.1
2019-02-24T00:49:21.226Z,12.1
2019-02-24T00:50:10.997Z,12.1
2019-02-24T00:51:01.317Z,12.1
2019-02-24T00:51:50.890Z,12.1
2019-02-24T00:52:40.880Z,12.1
2019-02-24T00:53:31.220Z,12.1
2019-02-24T00:54:20.780Z,12.1
2019-02-24T00:55:10.872Z,12
2019-02-24T00:56:01.440Z,12.1
2019-02-24T00:56:51.145Z,12.1
2019-02-24T00:57:40.470Z,12
2019-02-24T00:58:30.768Z,12
2019-02-24T00:59:21.414Z,12
2019-02-24T01:00:11.447Z,12
2019-02-24T01:01:00.697Z,12
2019-02-24T01:01:51.545Z,12
2019-02-24T01:02:41.897Z,11.9
2019-02-24T01:03:31.387Z,12
2019-02-24T01:04:21.472Z,12
2019-02-24T01:05:11.527Z,12
2019-02-24T01:06:01.564Z,11.9
2019-02-24T01:06:51.942Z,12
2019-02-24T01:07:41.212Z,11.9
2019-02-24T01:08:30.904Z,11.9
2019-02-24T01:09:21.539Z,11.9
2019-02-24T01:10:11.605Z,11.9
2019-02-24T01:11:02.241Z,11.9
2019-02-24T01:11:51.973Z,11.9
2019-02-24T01:12:41.779Z,11.9
2019-02-24T01:13:32.092Z,11.9
2019-02-24T01:14:22.199Z,11.9
2019-02-24T01:15:12.232Z,11.9
2019-02-24T01:16:02.809Z,11.9
2019-02-24T01:16:52.350Z,11.9
2019-02-24T01:17:42.659Z,11.9
2019-02-24T01:18:32.431Z,11.9
2019-02-24T01:19:22.016Z,11.9
2019-02-24T01:20:12.284Z,11.9
2019-02-24T01:21:02.961Z,11.9
2019-02-24T01:21:52.393Z,11.9
2019-02-24T01:22:43.003Z,11.9
2019-02-24T01:23:33.131Z,11.9
2019-02-24T01:24:22.281Z,11.8
2019-02-24T01:25:13.514Z,11.9
2019-02-24T01:26:02.671Z,11.8
2019-02-24T01:26:53.491Z,11.8
2019-02-24T01:27:43.863Z,11.8
2019-02-24T01:28:34.904Z,11.8
2019-02-24T01:29:23.948Z,11.8
2019-02-24T01:30:14.073Z,11.8
2019-02-24T01:31:02.801Z,11.8
2019-02-24T01:31:53.078Z,11.8
2019-02-24T01:32:44.163Z,11.8
2019-02-24T01:33:33.696Z,11.8
2019-02-24T01:34:24.328Z,11.8
2019-02-24T01:35:14.128Z,11.8
2019-02-24T01:36:03.043Z,11.8
2019-02-24T01:36:54.738Z,11.8
2019-02-24T01:37:44.273Z,11.8
2019-02-24T01:38:34.348Z,11.8
2019-02-24T01:39:23.782Z,11.8
2019-02-24T01:40:14.211Z,11.8
2019-02-24T01:41:03.890Z,11.7
2019-02-24T01:41:54.070Z,11.7
2019-02-24T01:42:44.580Z,11.7
2019-02-24T01:43:34.617Z,11.7
2019-02-24T01:44:23.960Z,11.7
2019-02-24T01:45:14.547Z,11.7
2019-02-24T01:46:04.267Z,11.7
2019-02-24T01:46:54.655Z,11.7
2019-02-24T01:47:44.180Z,11.7
2019-02-24T01:48:35.229Z,11.7
2019-02-24T01:49:24.867Z,11.7
2019-02-24T01:50:14.572Z,11.6
2019-02-24T01:51:05.422Z,11.7
2019-02-24T01:51:54.739Z,11.6
2019-02-24T01:52:44.824Z,11.6
2019-02-24T01:53:35.580Z,11.6
2019-02-24T01:54:25.712Z,11.6
2019-02-24T01:55:14.868Z,11.6
2019-02-24T01:56:04.677Z,11.6
2019-02-24T01:56:55.344Z,11.6
2019-02-24T01:57:45.590Z,11.6
2019-02-24T01:58:44.466Z,11.6
2019-02-24T01:59:26.412Z,11.6
2019-02-24T02:00:15.798Z,11.6
2019-02-24T02:01:06.122Z,11.6
2019-02-24T02:01:56.161Z,11.6
2019-02-24T02:02:45.689Z,11.6
2019-02-24T02:03:35.796Z,11.6
2019-02-24T02:04:25.521Z,11.6
2019-02-24T02:05:15.856Z,11.6
2019-02-24T02:06:05.636Z,11.5
2019-02-24T02:06:55.939Z,11.6
2019-02-24T02:07:46.903Z,11.5
2019-02-24T02:08:36.659Z,11.5
2019-02-24T02:09:26.814Z,11.5
2019-02-24T02:10:17.042Z,11.5
2019-02-24T02:11:06.074Z,11.5
2019-02-24T02:11:56.374Z,11.5
2019-02-24T02:12:46.912Z,11.5
2019-02-24T02:13:37.012Z,11.5
2019-02-24T02:14:26.487Z,11.4
2019-02-24T02:15:17.076Z,11.4
2019-02-24T02:16:07.418Z,11.4
2019-02-24T02:16:57.216Z,11.4
2019-02-24T02:17:46.471Z,11.4
2019-02-24T02:18:37.080Z,11.4
2019-02-24T02:19:27.419Z,11.4
2019-02-24T02:20:17.408Z,11.4
2019-02-24T02:21:07.494Z,11.4
2019-02-24T02:21:57.609Z,11.4
2019-02-24T02:22:47.636Z,11.4
2019-02-24T02:23:36.533Z,11.4
2019-02-24T02:24:27.443Z,11.4
2019-02-24T02:25:16.750Z,11.4
2019-02-24T02:26:06.532Z,11.4
2019-02-24T02:26:56.658Z,11.4
2019-02-24T02:27:47.233Z,11.4
2019-02-24T02:28:46.529Z,11.4
2019-02-24T02:29:26.502Z,11.4
2019-02-24T02:30:17.158Z,11.4
2019-02-24T02:31:08.045Z,11.3
2019-02-24T02:31:57.531Z,11.3
2019-02-24T02:32:47.802Z,11.3
2019-02-24T02:33:38.365Z,11.3
2019-02-24T02:34:27.857Z,11.3
2019-02-24T02:35:17.991Z,11.3
2019-02-24T02:36:08.027Z,11.3
2019-02-24T02:36:58.650Z,11.3
2019-02-24T02:37:48.377Z,11.3
2019-02-24T02:38:37.882Z,11.3
2019-02-24T02:39:28.572Z,11.3
2019-02-24T02:40:18.850Z,11.3
2019-02-24T02:41:08.644Z,11.3
2019-02-24T02:41:59.010Z,11.3
2019-02-24T02:42:48.472Z,11.3
2019-02-24T02:43:39.074Z,11.3
2019-02-24T02:44:29.127Z,11.3
2019-02-24T02:45:18.651Z,11.3
2019-02-24T02:46:08.993Z,11.3
2019-02-24T02:46:59.602Z,11.3
2019-02-24T02:47:49.408Z,11.2
2019-02-24T02:48:39.444Z,11.3
2019-02-24T02:49:29.201Z,11.2
2019-02-24T02:50:19.674Z,11.2
2019-02-24T02:51:09.652Z,11.2
2019-02-24T02:51:59.100Z,11.2
2019-02-24T02:52:49.766Z,11.2
2019-02-24T02:53:39.577Z,11.2
2019-02-24T02:54:29.037Z,11.2
2019-02-24T02:55:19.311Z,11.2
2019-02-24T02:56:09.766Z,11.1
2019-02-24T02:57:00.029Z,11.1
2019-02-24T02:57:50.311Z,11.2
2019-02-24T02:58:39.019Z,11.1
2019-02-24T02:59:30.445Z,11.1
2019-02-24T03:00:19.444Z,11.1
2019-02-24T03:01:09.411Z,11.1
2019-02-24T03:02:00.051Z,11.1
2019-02-24T03:02:49.817Z,11.1
2019-02-24T03:03:39.065Z,11.1
2019-02-24T03:04:30.215Z,11.1
2019-02-24T03:08:01.679Z,11.1
2019-02-24T03:08:52.014Z,11.1
2019-02-24T03:09:42.598Z,11.1
2019-02-24T03:10:33.071Z,11.1
2019-02-24T03:11:23.825Z,11.1
2019-02-24T03:12:12.998Z,11.1
2019-02-24T03:13:03.608Z,11.1
2019-02-24T03:13:53.136Z,11.1
2019-02-24T03:14:43.425Z,11.1
2019-02-24T03:15:32.073Z,11
2019-02-24T03:16:26.215Z,11.1
2019-02-24T03:17:13.075Z,11
2019-02-24T03:18:04.185Z,11
2019-02-24T03:18:54.002Z,11
2019-02-24T03:19:42.922Z,11
2019-02-24T03:20:33.796Z,11
2019-02-24T03:21:24.255Z,11
2019-02-24T03:22:13.916Z,11
2019-02-24T03:23:03.409Z,11
2019-02-24T03:23:53.802Z,10.9
2019-02-24T03:24:43.354Z,11
2019-02-24T03:25:34.194Z,10.9
2019-02-24T03:26:24.258Z,10.9
2019-02-24T03:27:14.040Z,10.9
2019-02-24T03:28:04.169Z,10.9
2019-02-24T03:29:03.488Z,10.9
2019-02-24T03:29:44.237Z,10.9
2019-02-24T03:30:34.440Z,10.9
2019-02-24T03:31:24.338Z,10.9
2019-02-24T03:32:14.786Z,10.9
2019-02-24T03:33:04.647Z,10.9
2019-02-24T03:33:55.045Z,10.9
2019-02-24T03:34:45.300Z,10.9
2019-02-24T03:35:34.570Z,10.9
2019-02-24T03:36:24.708Z,10.9
2019-02-24T03:37:14.956Z,10.9
2019-02-24T03:38:05.013Z,10.9
2019-02-24T03:38:55.054Z,10.9
2019-02-24T03:39:45.127Z,10.9
2019-02-24T03:40:34.891Z,10.9
2019-02-24T03:41:25.475Z,10.9
2019-02-24T03:42:15.820Z,10.9
2019-02-24T03:43:05.319Z,10.9
2019-02-24T03:43:55.797Z,10.9
2019-02-24T03:44:45.514Z,10.9
2019-02-24T03:45:35.502Z,10.9
2019-02-24T03:46:25.569Z,10.8
2019-02-24T03:47:15.327Z,10.8
2019-02-24T03:48:05.676Z,10.8
2019-02-24T03:48:56.302Z,10.8
2019-02-24T03:49:45.770Z,10.8
2019-02-24T03:50:35.306Z,10.8
2019-02-24T03:51:25.906Z,10.8
2019-02-24T03:52:16.213Z,10.8
2019-02-24T03:53:06.124Z,10.8
2019-02-24T03:53:56.110Z,10.8
2019-02-24T03:54:46.177Z,10.8
2019-02-24T03:55:36.467Z,10.8
2019-02-24T03:56:26.817Z,10.8
2019-02-24T03:57:16.311Z,10.8
2019-02-24T03:58:06.422Z,10.8
2019-02-24T03:58:56.414Z,10.8
2019-02-24T03:59:46.755Z,10.8
2019-02-24T04:00:36.565Z,10.8
2019-02-24T04:01:26.610Z,10.8
2019-02-24T04:02:17.176Z,10.8
2019-02-24T04:03:06.742Z,10.8
2019-02-24T04:03:57.057Z,10.8
2019-02-24T04:04:46.511Z,10.7
2019-02-24T04:05:37.147Z,10.8
2019-02-24T04:06:26.980Z,10.7
2019-02-24T04:07:16.696Z,10.8
2019-02-24T04:08:06.877Z,10.7
2019-02-24T04:08:57.432Z,10.7
2019-02-24T04:09:47.480Z,10.7
2019-02-24T04:10:36.663Z,10.7
2019-02-24T04:11:27.270Z,10.7
2019-02-24T04:12:17.341Z,10.7
2019-02-24T04:13:07.407Z,10.7
2019-02-24T04:13:56.675Z,10.7
2019-02-24T04:14:47.540Z,10.7
2019-02-24T04:15:37.262Z,10.7
2019-02-24T04:16:27.014Z,10.7
2019-02-24T04:17:17.079Z,10.7
2019-02-24T04:18:08.030Z,10.6
2019-02-24T04:18:57.419Z,10.7
2019-02-24T04:19:47.917Z,10.6
2019-02-24T04:20:37.890Z,10.6
2019-02-24T04:21:28.223Z,10.6
2019-02-24T04:22:18.292Z,10.6
2019-02-24T04:23:07.212Z,10.6
2019-02-24T04:23:58.397Z,10.6
2019-02-24T04:24:48.159Z,10.6
2019-02-24T04:25:37.694Z,10.6
2019-02-24T04:26:28.022Z,10.6
2019-02-24T04:27:20.408Z,10.6
2019-02-24T04:28:08.141Z,10.6
2019-02-24T04:28:58.964Z,10.6
2019-02-24T04:29:48.511Z,10.6
2019-02-24T04:30:37.909Z,10.6
2019-02-24T04:31:28.981Z,10.6
2019-02-24T04:32:18.938Z,10.6
2019-02-24T04:33:08.998Z,10.6
2019-02-24T04:33:58.794Z,10.6
2019-02-24T04:34:48.588Z,10.6
2019-02-24T04:35:38.713Z,10.6
2019-02-24T04:36:28.967Z,10.6
2019-02-24T04:37:18.711Z,10.6
2019-02-24T04:38:09.078Z,10.6
2019-02-24T04:38:58.581Z,10.6
2019-02-24T04:39:48.358Z,10.6
2019-02-24T04:40:39.234Z,10.6
2019-02-24T04:41:28.834Z,10.6
2019-02-24T04:42:19.708Z,10.5
2019-02-24T04:43:09.649Z,10.6
2019-02-24T04:43:59.756Z,10.5
2019-02-24T04:44:49.796Z,10.5
2019-02-24T04:45:39.553Z,10.5
2019-02-24T04:46:28.560Z,10.5
2019-02-24T04:47:19.979Z,10.5
2019-02-24T04:48:09.011Z,10.5
2019-02-24T04:48:59.353Z,10.5
2019-02-24T04:49:49.383Z,10.5
2019-02-24T04:50:39.526Z,10.5
2019-02-24T04:51:29.555Z,10.5
2019-02-24T04:52:19.258Z,10.5
2019-02-24T04:53:09.673Z,10.5
2019-02-24T04:53:59.092Z,10.5
2019-02-24T04:54:49.773Z,10.4
2019-02-24T04:55:40.818Z,10.4
2019-02-24T04:56:30.381Z,10.5
2019-02-24T04:57:20.378Z,10.4
2019-02-24T04:58:10.176Z,10.4
2019-02-24T04:59:00.490Z,10.4
2019-02-24T04:59:50.858Z,10.4
2019-02-24T05:00:40.586Z,10.4
2019-02-24T05:01:31.190Z,10.4
2019-02-24T05:02:21.003Z,10.4
2019-02-24T05:03:11.080Z,10.4
2019-02-24T05:04:00.837Z,10.4
2019-02-24T05:04:50.401Z,10.4
2019-02-24T05:05:40.987Z,10.4
2019-02-24T05:06:30.520Z,10.4
2019-02-24T05:07:20.302Z,10.4
2019-02-24T05:08:10.919Z,10.4
2019-02-24T05:09:01.032Z,10.4
2019-02-24T05:09:50.730Z,10.4
2019-02-24T05:10:40.816Z,10.4
2019-02-24T05:11:30.863Z,10.4
2019-02-24T05:12:20.902Z,10.4
2019-02-24T05:13:10.817Z,10.4
2019-02-24T05:14:00.745Z,10.4
2019-02-24T05:14:51.379Z,10.4
2019-02-24T05:15:40.582Z,10.4
2019-02-24T05:16:31.518Z,10.4
2019-02-24T05:17:21.849Z,10.4
2019-02-24T05:18:10.989Z,10.4
2019-02-24T05:19:01.905Z,10.4
2019-02-24T05:19:52.486Z,10.4
2019-02-24T05:20:42.487Z,10.4
2019-02-24T05:21:32.598Z,10.4
2019-02-24T05:22:22.094Z,10.4
2019-02-24T05:23:12.153Z,10.4
2019-02-24T05:24:02.205Z,10.4
2019-02-24T05:24:51.971Z,10.3
2019-02-24T05:25:42.092Z,10.3
2019-02-24T05:26:32.387Z,10.3
2019-02-24T05:27:21.838Z,10.3
2019-02-24T05:28:12.485Z,10.3
2019-02-24T05:29:02.605Z,10.3
2019-02-24T05:29:55.729Z,10.3
2019-02-24T05:30:42.450Z,10.3
2019-02-24T05:31:32.962Z,10.3
2019-02-24T05:32:22.539Z,10.3
2019-02-24T05:33:12.862Z,10.3
2019-02-24T05:34:02.607Z,10.3
2019-02-24T05:34:53.589Z,10.3
2019-02-24T05:35:43.272Z,10.3
2019-02-24T05:36:35.798Z,10.3
2019-02-24T05:37:23.417Z,10.3
2019-02-24T05:38:12.912Z,10.3
2019-02-24T05:39:03.267Z,10.3
2019-02-24T05:39:53.282Z,10.3
2019-02-24T05:40:43.347Z,10.3
2019-02-24T05:41:33.655Z,10.3
2019-02-24T05:42:23.709Z,10.3
2019-02-24T05:43:14.079Z,10.3
2019-02-24T05:44:03.574Z,10.3
2019-02-24T05:44:53.927Z,10.3
2019-02-24T05:45:43.480Z,10.3
2019-02-24T05:46:33.723Z,10.3
2019-02-24T05:47:23.310Z,10.3
2019-02-24T05:48:14.419Z,10.3
2019-02-24T05:49:04.166Z,10.3
2019-02-24T05:49:53.956Z,10.3
2019-02-24T05:50:43.745Z,10.3
2019-02-24T05:51:33.838Z,10.3
2019-02-24T05:52:24.125Z,10.3
2019-02-24T05:53:13.124Z,10.3
2019-02-24T05:54:03.713Z,10.3
2019-02-24T05:54:56.481Z,10.3
2019-02-24T05:55:44.589Z,10.3
2019-02-24T05:56:34.957Z,10.3
2019-02-24T05:57:24.471Z,10.2
2019-02-24T05:58:14.097Z,10.3
2019-02-24T05:59:04.833Z,10.2
2019-02-24T06:00:04.713Z,10.2
2019-02-24T06:00:44.395Z,10.2
2019-02-24T06:01:34.783Z,10.2
2019-02-24T06:02:25.109Z,10.2
2019-02-24T06:03:14.423Z,10.2
2019-02-24T06:06:03.036Z,10.2
2019-02-24T06:06:51.790Z,10.2
2019-02-24T06:07:43.251Z,10.2
2019-02-24T06:08:32.897Z,10.2
2019-02-24T06:09:22.448Z,10.2
2019-02-24T06:10:12.721Z,10.2
2019-02-24T06:11:03.383Z,10.2
2019-02-24T06:11:53.168Z,10.2
2019-02-24T06:12:43.744Z,10.2
2019-02-24T06:13:32.682Z,10.2
2019-02-24T06:14:22.467Z,10.2
2019-02-24T06:15:12.905Z,10.2
2019-02-24T06:16:02.599Z,10.2
2019-02-24T06:16:52.352Z,10.2
2019-02-24T06:17:43.555Z,10.2
2019-02-24T06:18:33.122Z,10.2
2019-02-24T06:19:23.208Z,10.2
2019-02-24T06:20:12.940Z,10.2
2019-02-24T06:21:02.970Z,10.2
2019-02-24T06:21:53.225Z,10.2
2019-02-24T06:22:42.769Z,10.2
2019-02-24T06:23:34.487Z,10.2
2019-02-24T06:24:23.455Z,10.2
2019-02-24T06:25:13.536Z,10.2
2019-02-24T06:26:04.678Z,10.2
2019-02-24T06:26:54.477Z,10.2
2019-02-24T06:27:44.452Z,10.2
2019-02-24T06:28:34.310Z,10.2
2019-02-24T06:29:24.029Z,10.1
2019-02-24T06:30:14.972Z,10.2
2019-02-24T06:31:04.459Z,10.2
2019-02-24T06:31:53.917Z,10.2
2019-02-24T06:32:44.002Z,10.1
2019-02-24T06:33:35.134Z,10.2
2019-02-24T06:34:24.091Z,10.2
2019-02-24T06:35:14.437Z,10.2
2019-02-24T06:36:03.967Z,10.2
2019-02-24T06:36:53.986Z,10.2
2019-02-24T06:37:44.320Z,10.2
2019-02-24T06:38:35.458Z,10.2
2019-02-24T06:39:24.719Z,10.2
2019-02-24T06:40:14.286Z,10.2
2019-02-24T06:41:06.774Z,10.2
2019-02-24T06:41:54.856Z,10.1
2019-02-24T06:42:44.646Z,10.2
2019-02-24T06:43:33.663Z,10.1
2019-02-24T06:44:25.049Z,10.1
2019-02-24T06:45:14.291Z,10.2
2019-02-24T06:46:04.058Z,10.2
2019-02-24T06:46:54.959Z,10.2
2019-02-24T06:47:45.932Z,10.2
2019-02-24T06:48:35.701Z,10.1
2019-02-24T06:49:24.906Z,10.1
2019-02-24T06:50:15.500Z,10.2
2019-02-24T06:51:05.302Z,10.2
2019-02-24T06:51:55.626Z,10.2
2019-02-24T06:52:46.116Z,10.2
2019-02-24T06:53:35.202Z,10.2
2019-02-24T06:54:25.432Z,10.2
2019-02-24T06:55:15.281Z,10.2
2019-02-24T06:56:05.354Z,10.2
2019-02-24T06:56:55.584Z,10.2
2019-02-24T06:57:45.680Z,10.2
2019-02-24T06:58:34.686Z,10.2
2019-02-24T06:59:25.063Z,10.2
2019-02-24T07:00:22.919Z,10.2
2019-02-24T07:01:05.475Z,10.2
2019-02-24T07:01:54.619Z,10.2
2019-02-24T07:02:46.060Z,10.2
2019-02-24T07:03:35.933Z,10.2
2019-02-24T07:06:01.760Z,10.2
2019-02-24T07:06:51.067Z,10.2
2019-02-24T07:07:41.919Z,10.2
2019-02-24T07:08:30.880Z,10.2
2019-02-24T07:09:23.717Z,10.2
2019-02-24T07:10:12.123Z,10.2
2019-02-24T07:11:01.330Z,10.2
2019-02-24T07:11:51.425Z,10.2
2019-02-24T07:12:41.804Z,10.2
2019-02-24T07:13:32.527Z,10.2
2019-02-24T07:14:21.292Z,10.2
2019-02-24T07:15:11.714Z,10.2
2019-02-24T07:16:01.714Z,10.2
2019-02-24T07:16:52.182Z,10.2
2019-02-24T07:17:43.336Z,10.2
2019-02-24T07:18:33.376Z,10.2
2019-02-24T07:19:22.584Z,10.2
2019-02-24T07:20:14.254Z,10.2
2019-02-24T07:21:04.069Z,10.2
2019-02-24T07:21:54.084Z,10.2
2019-02-24T07:22:43.544Z,10.2
2019-02-24T07:23:34.449Z,10.2
2019-02-24T07:24:24.281Z,10.3
2019-02-24T07:25:13.543Z,10.2
2019-02-24T07:26:03.813Z,10.2
2019-02-24T07:26:54.401Z,10.2
2019-02-24T07:27:43.916Z,10.2
2019-02-24T07:28:34.206Z,10.3
2019-02-24T07:29:24.858Z,10.3
2019-02-24T07:30:22.717Z,10.3
2019-02-24T07:31:04.755Z,10.2
2019-02-24T07:31:54.476Z,10.2
2019-02-24T07:32:44.821Z,10.3
2019-02-24T07:33:35.204Z,10.2
2019-02-24T07:34:24.454Z,10.2
2019-02-24T07:35:15.286Z,10.3
2019-02-24T07:36:04.572Z,10.3
2019-02-24T07:36:55.171Z,10.3
2019-02-24T07:37:44.357Z,10.3
2019-02-24T07:38:35.212Z,10.3
2019-02-24T07:39:25.595Z,10.3
2019-02-24T07:40:15.600Z,10.3
2019-02-24T07:41:05.110Z,10.3
2019-02-24T07:41:55.128Z,10.3
2019-02-24T07:42:45.755Z,10.3
2019-02-24T07:43:34.555Z,10.3
2019-02-24T07:44:24.840Z,10.3
2019-02-24T07:45:15.385Z,10.3
2019-02-24T07:46:04.638Z,10.3
2019-02-24T07:46:53.885Z,10.3
2019-02-24T07:47:45.257Z,10.3
2019-02-24T07:48:35.338Z,10.3
2019-02-24T07:49:25.140Z,10.3
2019-02-24T07:50:15.512Z,10.3
2019-02-24T07:51:04.974Z,10.3
2019-02-24T07:51:56.445Z,10.3
2019-02-24T07:52:45.389Z,10.3
2019-02-24T07:53:35.912Z,10.3
2019-02-24T07:54:26.273Z,10.3
2019-02-24T07:55:16.330Z,10.3
2019-02-24T07:56:05.340Z,10.4
2019-02-24T07:56:56.224Z,10.4
2019-02-24T07:57:46.340Z,10.4
2019-02-24T07:58:36.332Z,10.4
2019-02-24T07:59:25.835Z,10.4
2019-02-24T08:00:15.068Z,10.4
2019-02-24T08:01:05.975Z,10.4
2019-02-24T08:01:56.082Z,10.4
2019-02-24T08:02:46.157Z,10.4
2019-02-24T08:03:36.412Z,10.4
2019-02-24T08:04:26.474Z,10.4
2019-02-24T08:05:31.446Z,10.4
2019-02-24T08:06:06.841Z,10.4
2019-02-24T08:06:57.430Z,10.5
2019-02-24T08:07:46.904Z,10.5
2019-02-24T08:08:36.942Z,10.5
2019-02-24T08:09:26.514Z,10.5
2019-02-24T08:10:17.055Z,10.5
2019-02-24T08:11:07.383Z,10.5
2019-02-24T08:11:57.488Z,10.5
2019-02-24T08:12:47.234Z,10.5
2019-02-24T08:13:36.974Z,10.5
2019-02-24T08:14:27.648Z,10.6
2019-02-24T08:15:17.988Z,10.6
2019-02-24T08:16:07.779Z,10.6
2019-02-24T08:16:57.298Z,10.6
2019-02-24T08:17:47.331Z,10.6
2019-02-24T08:18:37.639Z,10.6
2019-02-24T08:19:27.700Z,10.6
2019-02-24T08:20:18.048Z,10.6
2019-02-24T08:21:09.636Z,10.6
2019-02-24T08:21:58.146Z,10.6
2019-02-24T08:22:48.451Z,10.6
2019-02-24T08:23:38.052Z,10.7
2019-02-24T08:24:30.196Z,10.7
2019-02-24T08:25:17.773Z,10.7
2019-02-24T08:26:08.723Z,10.7
2019-02-24T08:26:58.513Z,10.7
2019-02-24T08:27:48.879Z,10.8
2019-02-24T08:28:38.351Z,10.7
2019-02-24T08:29:27.865Z,10.8
2019-02-24T08:30:18.756Z,10.8
2019-02-24T08:31:08.770Z,10.8
2019-02-24T08:31:57.943Z,10.8
2019-02-24T08:32:48.895Z,10.8
2019-02-24T08:33:38.890Z,10.8
2019-02-24T08:34:28.692Z,10.8
2019-02-24T08:35:18.813Z,10.8
2019-02-24T08:36:08.832Z,10.9
2019-02-24T08:36:58.682Z,10.9
2019-02-24T08:37:48.647Z,10.9
2019-02-24T08:38:41.148Z,10.9
2019-02-24T08:39:29.095Z,10.9
2019-02-24T08:40:19.220Z,10.9
2019-02-24T08:41:08.927Z,10.9
2019-02-24T08:41:59.243Z,10.9
2019-02-24T08:42:49.860Z,10.9
2019-02-24T08:43:39.325Z,10.9
2019-02-24T08:44:31.972Z,10.9
2019-02-24T08:45:19.174Z,10.9
2019-02-24T08:46:09.252Z,10.9
2019-02-24T08:46:59.107Z,11
2019-02-24T08:47:49.000Z,11
2019-02-24T08:48:38.955Z,11
2019-02-24T08:49:29.486Z,11
2019-02-24T08:50:19.765Z,11
2019-02-24T08:51:10.139Z,11
2019-02-24T08:52:00.530Z,11.1
2019-02-24T08:52:50.223Z,11.1
2019-02-24T08:53:40.314Z,11.1
2019-02-24T08:54:30.329Z,11.1
2019-02-24T08:55:20.242Z,11.1
2019-02-24T08:56:10.331Z,11.1
2019-02-24T08:57:02.698Z,11.1
2019-02-24T08:57:50.546Z,11.1
2019-02-24T08:58:40.954Z,11.1
2019-02-24T08:59:30.734Z,11.2
2019-02-24T09:00:20.817Z,11.1
2019-02-24T09:01:10.793Z,11.2
2019-02-24T09:02:01.154Z,11.2
2019-02-24T09:02:52.483Z,11.2
2019-02-24T09:03:39.662Z,11.2
2019-02-24T09:04:31.043Z,11.2
2019-02-24T09:05:19.822Z,11.3
2019-02-24T09:06:11.399Z,11.2
2019-02-24T09:07:01.224Z,11.2
2019-02-24T09:07:51.547Z,11.3
2019-02-24T09:08:40.258Z,11.3
2019-02-24T09:09:31.071Z,11.3
2019-02-24T09:10:21.678Z,11.3
2019-02-24T09:11:11.833Z,11.3
2019-02-24T09:12:00.549Z,11.3
2019-02-24T09:12:51.313Z,11.3
2019-02-24T09:13:41.685Z,11.3
2019-02-24T09:14:32.026Z,11.3
2019-02-24T09:15:21.653Z,11.3
2019-02-24T09:16:11.943Z,11.3
2019-02-24T09:17:01.881Z,11.2
2019-02-24T09:17:51.754Z,11.2
2019-02-24T09:18:42.006Z,11.2
2019-02-24T09:19:32.113Z,11.2
2019-02-24T09:20:22.241Z,11.2
2019-02-24T09:21:11.677Z,11.2
2019-02-24T09:22:02.053Z,11.2
2019-02-24T09:22:52.335Z,11.2
2019-02-24T09:23:42.042Z,11.2
2019-02-24T09:24:30.753Z,11.2
2019-02-24T09:25:21.705Z,11.3
2019-02-24T09:26:12.227Z,11.2
2019-02-24T09:27:02.560Z,11.2
2019-02-24T09:27:52.890Z,11.2
2019-02-24T09:28:42.370Z,11.2
2019-02-24T09:29:31.463Z,11.1
2019-02-24T09:30:21.997Z,11.1
2019-02-24T09:31:12.097Z,11.2
2019-02-24T09:32:01.553Z,11.2
2019-02-24T09:32:52.438Z,11.2
2019-02-24T09:33:43.334Z,11.1
2019-02-24T09:34:33.362Z,11.2
2019-02-24T09:35:22.143Z,11.1
2019-02-24T09:36:12.602Z,11.2
2019-02-24T09:37:02.660Z,11.2
2019-02-24T09:37:53.055Z,11.2
2019-02-24T09:38:43.131Z,11.2
2019-02-24T09:39:33.092Z,11.2
2019-02-24T09:40:23.148Z,11.2
2019-02-24T09:41:13.246Z,11.2
2019-02-24T09:42:03.432Z,11.2
2019-02-24T09:42:53.054Z,11.1
2019-02-24T09:43:43.661Z,11.2
2019-02-24T09:44:32.975Z,11.2
2019-02-24T09:45:24.071Z,11.2
2019-02-24T09:46:14.157Z,11.2
2019-02-24T09:47:04.166Z,11.2
2019-02-24T09:47:56.336Z,11.2
2019-02-24T09:48:44.031Z,11.2
2019-02-24T09:49:34.176Z,11.2
2019-02-24T09:50:24.380Z,11.2
2019-02-24T09:51:14.191Z,11.2
2019-02-24T09:52:03.972Z,11.2
2019-02-24T09:52:52.992Z,11.2
2019-02-24T09:53:44.684Z,11.2
2019-02-24T09:54:34.676Z,11.3
2019-02-24T09:55:24.748Z,11.2
2019-02-24T09:56:14.783Z,11.2
2019-02-24T09:57:04.016Z,11.2
2019-02-24T09:57:54.713Z,11.2
2019-02-24T09:58:44.976Z,11.3
2019-02-24T09:59:34.473Z,11.3
2019-02-24T10:00:27.283Z,11.3
2019-02-24T10:01:20.407Z,11.3
2019-02-24T10:02:05.174Z,11.3
2019-02-24T10:02:54.973Z,11.3
2019-02-24T10:03:44.463Z,11.3
2019-02-24T10:04:35.086Z,11.3
2019-02-24T10:07:02.903Z,11.3
2019-02-24T10:07:51.793Z,11.3
2019-02-24T10:08:43.240Z,11.3
2019-02-24T10:09:33.002Z,11.3
2019-02-24T10:10:22.795Z,11.3
2019-02-24T10:11:14.975Z,11.3
2019-02-24T10:12:03.254Z,11.3
2019-02-24T10:12:53.635Z,11.3
2019-02-24T10:13:42.852Z,11.3
2019-02-24T10:14:33.125Z,11.3
2019-02-24T10:15:23.494Z,11.3
2019-02-24T10:16:13.736Z,11.3
2019-02-24T10:17:03.033Z,11.3
2019-02-24T10:17:53.355Z,11.4
2019-02-24T10:18:43.360Z,11.4
2019-02-24T10:19:34.590Z,11.4
2019-02-24T10:20:24.035Z,11.4
2019-02-24T10:21:13.410Z,11.4
2019-02-24T10:22:03.365Z,11.4
2019-02-24T10:22:53.937Z,11.4
2019-02-24T10:23:43.442Z,11.4
2019-02-24T10:24:33.809Z,11.4
2019-02-24T10:25:24.108Z,11.4
2019-02-24T10:26:13.293Z,11.4
2019-02-24T10:27:04.474Z,11.4
2019-02-24T10:27:54.263Z,11.4
2019-02-24T10:28:44.114Z,11.4
2019-02-24T10:29:34.373Z,11.4
2019-02-24T10:30:24.449Z,11.4
2019-02-24T10:31:23.423Z,11.4
2019-02-24T10:32:03.659Z,11.4
2019-02-24T10:32:54.679Z,11.5
2019-02-24T10:33:44.428Z,11.5
2019-02-24T10:34:34.154Z,11.5
2019-02-24T10:35:23.672Z,11.5
2019-02-24T10:36:14.589Z,11.5
2019-02-24T10:37:04.912Z,11.5
2019-02-24T10:37:54.942Z,11.5
2019-02-24T10:38:45.004Z,11.5
2019-02-24T10:39:39.266Z,11.5
2019-02-24T10:40:24.659Z,11.5
2019-02-24T10:41:14.899Z,11.5
2019-02-24T10:42:05.555Z,11.5
2019-02-24T10:42:54.439Z,11.5
2019-02-24T10:43:45.084Z,11.5
2019-02-24T10:44:35.436Z,11.5
2019-02-24T10:45:25.188Z,11.5
2019-02-24T10:46:17.723Z,11.5
2019-02-24T10:47:08.173Z,11.5
2019-02-24T10:47:54.743Z,11.5
2019-02-24T10:48:45.195Z,11.5
2019-02-24T10:49:35.763Z,11.5
2019-02-24T10:50:25.526Z,11.5
2019-02-24T10:51:15.313Z,11.5
2019-02-24T10:52:05.145Z,11.5
2019-02-24T10:52:56.387Z,11.5
2019-02-24T10:53:46.288Z,11.5
2019-02-24T10:54:35.855Z,11.5
2019-02-24T10:55:26.453Z,11.5
2019-02-24T10:56:16.192Z,11.5
2019-02-24T10:57:05.688Z,11.5
2019-02-24T10:57:56.333Z,11.5
2019-02-24T10:58:46.113Z,11.5
2019-02-24T10:59:36.750Z,11.5
2019-02-24T11:00:25.862Z,11.5
2019-02-24T11:01:16.538Z,11.5
2019-02-24T11:02:06.368Z,11.5
2019-02-24T11:02:56.643Z,11.5
2019-02-24T11:03:46.708Z,11.5
2019-02-24T11:04:36.797Z,11.5
2019-02-24T11:05:26.885Z,11.5
2019-02-24T11:06:16.346Z,11.5
2019-02-24T11:07:06.407Z,11.5
2019-02-24T11:07:56.720Z,11.5
2019-02-24T11:08:47.100Z,11.5
2019-02-24T11:09:36.785Z,11.5
2019-02-24T11:10:27.465Z,11.5
2019-02-24T11:11:17.220Z,11.5
2019-02-24T11:12:09.621Z,11.5
2019-02-24T11:12:57.032Z,11.5
2019-02-24T11:13:47.419Z,11.5
2019-02-24T11:14:37.424Z,11.5
2019-02-24T11:15:26.284Z,11.5